Stornoway — WDC7908 — position and weather

sailwx.info

Track history (hours):
 
Tides and Currents Weather Stations Pressure Air Temp Water Temp Dewpoint Dewpoint Depression Visibility Wind Speed Wind Dir Waves Ship Positions

Stornoway

Owner: Matthews, William R, Bainbridge Island, WA. More information available from US FCC via Universal Licensing System and Coast Guard Vessel Documentation Center.

Last reported at 2017-Jan-08 21:24 UTC. Time now 2017-Jan-19 10:54 UTC.
Position N 47°43' W 122°31'.
Warning: this ship's position is 10 days out of date.

Length 13 m.

Type: Pleasure craft. MMSI: 367078810.

Date/timePositionNaut miles runAvg speedWind from/ knotsBaromVisibWave heightAir tempDewpointWater temp
2017-Jan-08 21:24N 47°43' W 122°31'7 8.0
2017-Jan-08 20:33N 47°49' W 122°26'8 8.4
2017-Jan-08 19:33N 47°57' W 122°21'33 1.3
2017-Jan-07 17:32N 48°29' W 122°32'4 3.3
2017-Jan-07 16:28N 48°31' W 122°36'0 0.0
2017-Jan-07 15:22N 48°31' W 122°36'0 0.0
2017-Jan-07 14:28N 48°31' W 122°36'0 0.0
2017-Jan-07 13:28N 48°31' W 122°36'0 0.0
2017-Jan-07 12:28N 48°31' W 122°36'0 0.0
2017-Jan-07 11:28N 48°31' W 122°36'0 0.0
2017-Jan-07 10:22N 48°31' W 122°36'0 0.0
2017-Jan-07 09:28N 48°31' W 122°36'0 0.0
2017-Jan-07 08:28N 48°31' W 122°36'0 0.0
2017-Jan-07 07:28N 48°31' W 122°36'0 0.0
2017-Jan-07 06:28N 48°31' W 122°36'0 0.0
2017-Jan-07 05:28N 48°31' W 122°36'0 0.0
2017-Jan-07 04:28N 48°31' W 122°36'0 0.0
2017-Jan-07 03:28N 48°31' W 122°36'0 0.0
2017-Jan-07 02:28N 48°31' W 122°36'0 0.0
2017-Jan-07 01:28N 48°31' W 122°36'0 0.0
2017-Jan-07 00:28N 48°31' W 122°36'0 0.0
2017-Jan-06 23:28N 48°31' W 122°36'0 0.0
2017-Jan-06 22:28N 48°31' W 122°36'0 0.0
2017-Jan-06 21:28N 48°31' W 122°36'0 0.0
2017-Jan-06 20:28N 48°31' W 122°36'0 0.0
2017-Jan-06 19:28N 48°31' W 122°36'0 0.0
2017-Jan-06 18:28N 48°31' W 122°36'0 0.0
2017-Jan-06 17:28N 48°31' W 122°36'0 0.0
2017-Jan-06 16:28N 48°31' W 122°36'0 0.0
2017-Jan-06 15:28N 48°31' W 122°36'0 0.0
2017-Jan-06 14:28N 48°31' W 122°36'0 0.0
2017-Jan-06 13:28N 48°31' W 122°36'0 0.0
2017-Jan-06 12:28N 48°31' W 122°36'0 0.0
2017-Jan-06 10:25N 48°31' W 122°36'0 0.0
2017-Jan-06 09:19N 48°31' W 122°36'0 0.0
2017-Jan-06 08:31N 48°31' W 122°36'0 0.0
2017-Jan-06 07:31N 48°31' W 122°36'0 0.0
2017-Jan-06 06:31N 48°31' W 122°36'0 0.0
2017-Jan-06 05:31N 48°31' W 122°36'0 0.0
2017-Jan-06 04:31N 48°31' W 122°36'0 0.0
2017-Jan-06 03:25N 48°31' W 122°36'0 0.0
2017-Jan-06 02:31N 48°31' W 122°36'0 0.0
2017-Jan-06 01:31N 48°31' W 122°36'0 0.0
2017-Jan-06 00:25N 48°31' W 122°36'0 0.0
2017-Jan-05 23:33N 48°31' W 122°36'0 0.0
2017-Jan-05 22:31N 48°31' W 122°36'0 0.0
2017-Jan-05 21:31N 48°31' W 122°36'0 0.0
2017-Jan-05 20:31N 48°31' W 122°36'0 0.0
2017-Jan-05 19:19N 48°31' W 122°36'4 4.4
2017-Jan-05 18:30N 48°31' W 122°42'8 8.0
2017-Jan-05 17:32N 48°34' W 122°52'6 5.9
2017-Jan-05 16:33N 48°32' W 123°01'0 0.0
2017-Jan-05 15:33N 48°32' W 123°01'0 0.0
2017-Jan-05 14:30N 48°32' W 123°01'0 0.0
2017-Jan-05 13:27N 48°32' W 123°01'0 0.0
2017-Jan-05 12:33N 48°32' W 123°01'0 0.0
2017-Jan-05 11:33N 48°32' W 123°01'0 0.0
2017-Jan-05 10:33N 48°32' W 123°01'0 0.0
2017-Jan-05 09:33N 48°32' W 123°01'0 0.0
2017-Jan-05 08:33N 48°32' W 123°01'0 0.0
2017-Jan-05 07:33N 48°32' W 123°01'0 0.0
2017-Jan-05 06:33N 48°32' W 123°01'0 0.0
2017-Jan-05 05:33N 48°32' W 123°01'0 0.0
2017-Jan-05 04:30N 48°32' W 123°01'0 0.0
2017-Jan-05 03:30N 48°32' W 123°01'0 0.0
2017-Jan-05 02:33N 48°32' W 123°01'0 0.0
2017-Jan-05 01:33N 48°32' W 123°01'0 0.0
2017-Jan-05 00:33N 48°32' W 123°01'0 0.0
2017-Jan-04 23:33N 48°32' W 123°01'0 0.0
2017-Jan-04 22:33N 48°32' W 123°01'0 0.0
2017-Jan-04 21:33N 48°32' W 123°01'0 0.0
2017-Jan-04 20:24N 48°32' W 123°01'0 0.0
2017-Jan-04 19:33N 48°32' W 123°01'0 0.0
2017-Jan-04 18:33N 48°32' W 123°01'0 0.0
2017-Jan-04 17:33N 48°32' W 123°01'0 0.0
2017-Jan-04 16:33N 48°32' W 123°01'0 0.0
2017-Jan-04 15:30N 48°32' W 123°01'0 0.0
2017-Jan-04 14:30N 48°32' W 123°01'0 0.0
2017-Jan-04 13:33N 48°32' W 123°01'0 0.0
2017-Jan-04 12:33N 48°32' W 123°01'0 0.0
2017-Jan-04 11:30N 48°32' W 123°01'0 0.0
2017-Jan-04 10:33N 48°32' W 123°01'0 0.0
2017-Jan-04 09:33N 48°32' W 123°01'0 0.0
2017-Jan-04 06:33N 48°32' W 123°01'0 0.0
2017-Jan-04 05:33N 48°32' W 123°01'0 0.0
2017-Jan-04 04:33N 48°32' W 123°01'0 0.0
2017-Jan-04 03:33N 48°32' W 123°01'0 0.0
2017-Jan-04 02:33N 48°32' W 123°01'0 0.0
2017-Jan-04 01:21N 48°32' W 123°01'0 0.3
2017-Jan-04 00:33N 48°33' W 123°01'  
2017-Jan-01 13:31N 48°37' W 123°09'0 0.0
2017-Jan-01 12:31N 48°37' W 123°09'0 0.0
2017-Jan-01 10:28N 48°37' W 123°09'0 0.0
2017-Jan-01 09:16N 48°37' W 123°09'0 0.0
2017-Jan-01 08:31N 48°37' W 123°09'0 0.0
2017-Jan-01 07:19N 48°37' W 123°09'1 0.1
2016-Dec-31 10:16N 48°35' W 123°09'0 0.0
2016-Dec-31 03:32N 48°35' W 123°09'0 0.0
2016-Dec-31 02:32N 48°35' W 123°09'0 0.0
2016-Dec-31 00:14N 48°35' W 123°09'2 3.1
2016-Dec-30 23:33N 48°33' W 123°11'45 8.8
2016-Dec-30 18:28N 47°56' W 122°33'8 9.2
2016-Dec-30 17:33N 47°49' W 122°28'  
Track history (hours):
 
Tides and Currents Weather Stations Pressure Air Temp Water Temp Dewpoint Dewpoint Depression Visibility Wind Speed Wind Dir Waves Ship Positions

Stornoway

Owner: Matthews, William R, Bainbridge Island, WA. More information available from US FCC via Universal Licensing System and Coast Guard Vessel Documentation Center.

Last reported at 2017-Jan-08 21:24 UTC. Time now 2017-Jan-19 10:54 UTC.
Position N 47°43' W 122°31'.
Warning: this ship's position is 10 days out of date.

Length 13 m.

Type: Pleasure craft. MMSI: 367078810.

Date/timePositionNaut miles runAvg speedWind from/ knotsBaromVisibWave heightAir tempDewpointWater temp
2017-Jan-08 21:24N 47°43' W 122°31'7 8.0
2017-Jan-08 20:33N 47°49' W 122°26'8 8.4
2017-Jan-08 19:33N 47°57' W 122°21'33 1.3
2017-Jan-07 17:32N 48°29' W 122°32'4 3.3
2017-Jan-07 16:28N 48°31' W 122°36'0 0.0
2017-Jan-07 15:22N 48°31' W 122°36'0 0.0
2017-Jan-07 14:28N 48°31' W 122°36'0 0.0
2017-Jan-07 13:28N 48°31' W 122°36'0 0.0
2017-Jan-07 12:28N 48°31' W 122°36'0 0.0
2017-Jan-07 11:28N 48°31' W 122°36'0 0.0
2017-Jan-07 10:22N 48°31' W 122°36'0 0.0
2017-Jan-07 09:28N 48°31' W 122°36'0 0.0
2017-Jan-07 08:28N 48°31' W 122°36'0 0.0
2017-Jan-07 07:28N 48°31' W 122°36'0 0.0
2017-Jan-07 06:28N 48°31' W 122°36'0 0.0
2017-Jan-07 05:28N 48°31' W 122°36'0 0.0
2017-Jan-07 04:28N 48°31' W 122°36'0 0.0
2017-Jan-07 03:28N 48°31' W 122°36'0 0.0
2017-Jan-07 02:28N 48°31' W 122°36'0 0.0
2017-Jan-07 01:28N 48°31' W 122°36'0 0.0
2017-Jan-07 00:28N 48°31' W 122°36'0 0.0
2017-Jan-06 23:28N 48°31' W 122°36'0 0.0
2017-Jan-06 22:28N 48°31' W 122°36'0 0.0
2017-Jan-06 21:28N 48°31' W 122°36'0 0.0
2017-Jan-06 20:28N 48°31' W 122°36'0 0.0
2017-Jan-06 19:28N 48°31' W 122°36'0 0.0
2017-Jan-06 18:28N 48°31' W 122°36'0 0.0
2017-Jan-06 17:28N 48°31' W 122°36'0 0.0
2017-Jan-06 16:28N 48°31' W 122°36'0 0.0
2017-Jan-06 15:28N 48°31' W 122°36'0 0.0
2017-Jan-06 14:28N 48°31' W 122°36'0 0.0
2017-Jan-06 13:28N 48°31' W 122°36'0 0.0
2017-Jan-06 12:28N 48°31' W 122°36'0 0.0
2017-Jan-06 10:25N 48°31' W 122°36'0 0.0
2017-Jan-06 09:19N 48°31' W 122°36'0 0.0
2017-Jan-06 08:31N 48°31' W 122°36'0 0.0
2017-Jan-06 07:31N 48°31' W 122°36'0 0.0
2017-Jan-06 06:31N 48°31' W 122°36'0 0.0
2017-Jan-06 05:31N 48°31' W 122°36'0 0.0
2017-Jan-06 04:31N 48°31' W 122°36'0 0.0
2017-Jan-06 03:25N 48°31' W 122°36'0 0.0
2017-Jan-06 02:31N 48°31' W 122°36'0 0.0
2017-Jan-06 01:31N 48°31' W 122°36'0 0.0
2017-Jan-06 00:25N 48°31' W 122°36'0 0.0
2017-Jan-05 23:33N 48°31' W 122°36'0 0.0
2017-Jan-05 22:31N 48°31' W 122°36'0 0.0
2017-Jan-05 21:31N 48°31' W 122°36'0 0.0
2017-Jan-05 20:31N 48°31' W 122°36'0 0.0
2017-Jan-05 19:19N 48°31' W 122°36'4 4.4
2017-Jan-05 18:30N 48°31' W 122°42'8 8.0
2017-Jan-05 17:32N 48°34' W 122°52'6 5.9
2017-Jan-05 16:33N 48°32' W 123°01'0 0.0
2017-Jan-05 15:33N 48°32' W 123°01'0 0.0
2017-Jan-05 14:30N 48°32' W 123°01'0 0.0
2017-Jan-05 13:27N 48°32' W 123°01'0 0.0
2017-Jan-05 12:33N 48°32' W 123°01'0 0.0
2017-Jan-05 11:33N 48°32' W 123°01'0 0.0
2017-Jan-05 10:33N 48°32' W 123°01'0 0.0
2017-Jan-05 09:33N 48°32' W 123°01'0 0.0
2017-Jan-05 08:33N 48°32' W 123°01'0 0.0
2017-Jan-05 07:33N 48°32' W 123°01'0 0.0
2017-Jan-05 06:33N 48°32' W 123°01'0 0.0
2017-Jan-05 05:33N 48°32' W 123°01'0 0.0
2017-Jan-05 04:30N 48°32' W 123°01'0 0.0
2017-Jan-05 03:30N 48°32' W 123°01'0 0.0
2017-Jan-05 02:33N 48°32' W 123°01'0 0.0
2017-Jan-05 01:33N 48°32' W 123°01'0 0.0
2017-Jan-05 00:33N 48°32' W 123°01'0 0.0
2017-Jan-04 23:33N 48°32' W 123°01'0 0.0
2017-Jan-04 22:33N 48°32' W 123°01'0 0.0
2017-Jan-04 21:33N 48°32' W 123°01'0 0.0
2017-Jan-04 20:24N 48°32' W 123°01'0 0.0
2017-Jan-04 19:33N 48°32' W 123°01'0 0.0
2017-Jan-04 18:33N 48°32' W 123°01'0 0.0
2017-Jan-04 17:33N 48°32' W 123°01'0 0.0
2017-Jan-04 16:33N 48°32' W 123°01'0 0.0
2017-Jan-04 15:30N 48°32' W 123°01'0 0.0
2017-Jan-04 14:30N 48°32' W 123°01'0 0.0
2017-Jan-04 13:33N 48°32' W 123°01'0 0.0
2017-Jan-04 12:33N 48°32' W 123°01'0 0.0
2017-Jan-04 11:30N 48°32' W 123°01'0 0.0
2017-Jan-04 10:33N 48°32' W 123°01'0 0.0
2017-Jan-04 09:33N 48°32' W 123°01'0 0.0
2017-Jan-04 06:33N 48°32' W 123°01'0 0.0
2017-Jan-04 05:33N 48°32' W 123°01'0 0.0
2017-Jan-04 04:33N 48°32' W 123°01'0 0.0
2017-Jan-04 03:33N 48°32' W 123°01'0 0.0
2017-Jan-04 02:33N 48°32' W 123°01'0 0.0
2017-Jan-04 01:21N 48°32' W 123°01'0 0.3
2017-Jan-04 00:33N 48°33' W 123°01'  
2017-Jan-01 13:31N 48°37' W 123°09'0 0.0
2017-Jan-01 12:31N 48°37' W 123°09'0 0.0
2017-Jan-01 10:28N 48°37' W 123°09'0 0.0
2017-Jan-01 09:16N 48°37' W 123°09'0 0.0
2017-Jan-01 08:31N 48°37' W 123°09'0 0.0
2017-Jan-01 07:19N 48°37' W 123°09'1 0.1
2016-Dec-31 10:16N 48°35' W 123°09'0 0.0
2016-Dec-31 03:32N 48°35' W 123°09'0 0.0
2016-Dec-31 02:32N 48°35' W 123°09'0 0.0
2016-Dec-31 00:14N 48°35' W 123°09'2 3.1
2016-Dec-30 23:33N 48°33' W 123°11'45 8.8
2016-Dec-30 18:28N 47°56' W 122°33'8 9.2
2016-Dec-30 17:33N 47°49' W 122°28'  

Dump ship's entire track history